WEATHER DATA

TODAY
Time Temp. Dewp. Hum. Wind dir Wind speed Wind gust Bar. 1h Prec. 24h Prec.
00:06 22.2 6.8 37 31 0.6 1.4 1013.9 0.0000 0.0000
00:17 22 7 38 32 0.6 1.7 1013.9 0.0000 0.0000
00:27 21.8 6.9 38 45 0.3 1.4 1013.9 0.0000 0.0000
00:37 21.8 7.2 39 45 0.3 1.1 1013.9 0.0000 0.0000
00:46 21.7 7.5 40 350 0.3 1.4 1013.8 0.0000 0.0000
00:57 21.5 7.3 40 215 0.6 1.9 1013.8 0.0000 0.0000
01:07 21.4 7.6 41 153 0.8 2.2 1014.2 0.0000 0.0000
01:17 21.3 7.5 41 154 0.6 1.7 1013.7 0.0000 0.0000
01:27 21.3 7.9 42 154 0.6 1.4 1013.6 0.0000 0.0000
01:37 21.3 7.5 41 155 0.8 2.8 1013.7 0.0000 0.0000
01:47 21.3 7.5 41 139 0.6 1.7 1013.6 0.0000 0.0000
01:57 21.3 7.9 42 145 0.6 1.9 1013.6 0.0000 0.0000
02:07 21.2 7.8 42 135 0.3 1.1 1013.7 0.0000 0.0000
02:17 21 7.6 42 153 0.6 1.9 1013.6 0.0000 0.0000
02:27 21 7.6 42 149 0.6 1.7 1013.6 0.0000 0.0000
02:38 21 7.3 41 0.3 1.4 1013.5 0.0000 0.0000
02:47 20.7 7.3 42 45 0.3 0.8 1013.4 0.0000 0.0000
02:57 20.3 6.6 41 168 0.3 0.8 1013.4 0.0000 0.0000
03:07 20.3 5.5 38 156 0.6 1.9 1013.4 0.0000 0.0000
03:17 20.3 5.1 37 168 0.8 1.9 1013.4 0.0000 0.0000
03:27 20.3 4.8 36 145 0.6 1.9 1013.4 0.0000 0.0000
03:37 20.4 4.8 36 176 0.6 1.4 1013.4 0.0000 0.0000
03:48 20.3 5.1 37 161 0.3 0.8 1013.4 0.0000 0.0000
03:57 20.2 5.1 37 154 0.6 1.7 1013.4 0.0000 0.0000
04:07 20.3 5.1 37 153 0.6 2.2 1013.1 0.0000 0.0000
04:17 20.3 4.8 36 162 0.8 2.2 1013.1 0.0000 0.0000
04:28 20.2 4.7 36 225 0.3 1.1 1013.1 0.0000 0.0000
04:37 20.1 5 37 167 0.6 1.9 1013.2 0.0000 0.0000
04:47 20 4.9 37 163 0.6 1.7 1013.2 0.0000 0.0000
04:58 19.8 5.1 38 165 0.6 1.9 1013.5 0.0000 0.0000
05:07 19.7 5 38 341 0.3 0.8 1013.4 0.0000 0.0000
05:17 19.4 5.1 39 135 0.3 1.7 1013.5 0.0000 0.0000
05:28 19.1 5.2 40 270 0.3 0.8 1013.4 0.0000 0.0000
05:38 19 5.5 41 325 0.3 1.7 1013.5 0.0000 0.0000
05:47 19 5.5 41 346 0.3 1.1 1013.4 0.0000 0.0000
05:57 19 5.5 41 270 0.3 0.8 1013.6 0.0000 0.0000
06:08 19.1 5.2 40 341 0.3 1.1 1013.6 0.0000 0.0000
06:18 19.4 5.5 40 12 0.3 1.4 1013.5 0.0000 0.0000
06:27 19.7 5.4 39 23 0.6 1.7 1013.6 0.0000 0.0000
06:38 20 5.6 39 50 0.6 1.7 1013.5 0.0000 0.0000
06:48 20.2 6.2 40 75 0.6 2.8 1013.5 0.0000 0.0000
06:57 20.5 6.5 40 102 0.8 3.6 1013.6 0.0000 0.0000
07:08 20.6 6.2 39 56 0.8 2.2 1013.7 0.0000 0.0000
07:18 21.1 7 40 65 0.8 3.3 1013.7 0.0000 0.0000
07:28 21.5 7 39 90 0.8 3.1 1013.8 0.0000 0.0000
07:37 21.9 7.3 39 50 0.6 1.4 1013.9 0.0000 0.0000
07:48 22.6 7.6 38 90 0.6 3.3 1013.9 0.0000 0.0000
07:58 23.5 7.6 36 90 0.8 3.1 1013.8 0.0000 0.0000
08:07 24.2 8.2 36 45 0.6 1.9 1014.1 0.0000 0.0000
08:18 24.7 7.4 33 70 0.8 2.2 1014.1 0.0000 0.0000
08:28 25 8.1 34 81 1.1 2.8 1014.4 0.0000 0.0000
08:38 25.2 7.8 33 68 1.1 3.9 1014.2 0.0000 0.0000
08:47 25.3 7.4 32 90 1.1 3.6 1014.3 0.0000 0.0000
08:58 25.4 8.4 34 72 1.1 2.8 1014.4 0.0000 0.0000
09:08 25.7 8.7 34 71 0.8 2.2 1014.3 0.0000 0.0000
09:20 25.8 7.9 32 63 1.4 6.1 1014.5 0.0000 0.0000
09:30 26 8 32 90 1.1 2.5 1014.3 0.0000 0.0000
09:40 26.1 7.7 31 67 1.1 2.8 1014.5 0.0000 0.0000
09:50 26.5 8.5 32 90 1.1 3.9 1014.5 0.0000 0.0000
10:00 26.7 8.7 32 101 1.1 3.3 1014.3 0.0000 0.0000
10:10 27.3 8.7 31 90 0.8 2.2 1014.7 0.0000 0.0000
10:20 27.9 9.7 32 137 0.8 3.1 1014.7 0.0000 0.0000
10:30 28.3 8.6 29 59 0.8 1.9 1014.7 0.0000 0.0000
10:40 28.7 7.9 27 90 0.8 2.5 1014.4 0.0000 0.0000
10:50 28.9 8.6 28 106 1.1 2.8 1014.3 0.0000 0.0000
11:00 29 8.7 28 118 0.8 2.8 1014.3 0.0000 0.0000
11:10 28.9 6.3 24 62 0.8 3.1 1014.1 0.0000 0.0000
11:20 29.2 7.2 25 108 0.8 3.1 1013.9 0.0000 0.0000
11:31 29.5 7.4 25 111 1.1 4.2 1013.8 0.0000 0.0000
11:40 29.8 8.3 26 155 1.1 3.1 1013.7 0.0000 0.0000
11:49 29.9 8.3 26 90 0.8 5.3 1013.6 0.0000 0.0000
12:00 29.8 6.5 23 78 1.1 3.6 1013.5 0.0000 0.0000
12:10 29.8 5.8 22 110 1.1 3.1 1013.6 0.0000 0.0000
12:19 30 5.3 21 48 0.8 1.9 1013.4 0.0000 0.0000
12:30 30 6 22 80 0.8 3.1 1013.2 0.0000 0.0000
12:40 30.3 6.9 23 75 0.8 2.8 1013 0.0000 0.0000
12:50 30.3 6.2 22 54 0.8 2.8 1013 0.0000 0.0000
13:00 31 5.4 20 90 0.8 2.8 1012.9 0.0000 0.0000
13:10 30.8 5.3 20 45 0.8 2.5 1012.5 0.0000 0.0000
13:20 31.2 4.1 18 45 0.6 1.7 1012.4 0.0000 0.0000
13:30 31.4 5.8 20 71 0.8 2.2 1012.1 0.0000 0.0000
13:40 31.7 3.7 17 47 1.1 3.1 1012.1 0.0000 0.0000
13:50 31.8 5.3 19 8 1.1 3.3 1011.8 0.0000 0.0000
14:00 31.9 4.7 18 14 1.1 2.8 1011.7 0.0000 0.0000
14:10 32.3 5 18 2 0.8 2.5 1011.5 0.0000 0.0000
14:20 32.6 6 19 315 0.6 1.4 1011.2 0.0000 0.0000
14:30 33.2 6.5 19 347 0.6 1.9 1011.4 0.0000 0.0000
14:40 33.7 6.9 19 206 0.3 1.1 1011 0.0000 0.0000
14:51 33.6 3.4 15 336 0.6 1.7 1011 0.0000 0.0000
15:01 33 2.9 15 7 1.1 2.8 1010.9 0.0000 0.0000
15:10 32.6 1.7 14 19 1.1 2.8 1010.7 0.0000 0.0000
15:20 32.4 1.5 14 14 1.1 2.8 1010.7 0.0000 0.0000
15:31 32.5 3.5 16 346 0.6 1.4 1010.4 0.0000 0.0000
15:41 32.5 2.6 15 342 0.8 1.9 1010.5 0.0000 0.0000
15:50 32.3 3.3 16 0 0.6 1.4 1010.3 0.0000 0.0000
16:01 32 1.2 14 12 0.8 2.2 1010.3 0.0000 0.0000
16:11 32 0.2 13 0 0.6 1.7 1010.3 0.0000 0.0000
16:21 31.8 2 15 0 0.3 1.4 1010.2 0.0000 0.0000
16:31 31.7 1.9 15 17 1.1 2.8 1010.1 0.0000 0.0000
16:41 31.3 1.6 15 5 0.8 1.9 1010.1 0.0000 0.0000
16:51 31.1 2.3 16 90 0.6 1.7 1010.1 0.0000 0.0000
17:01 31.2 2.4 16 156 0.3 1.1 1010 0.0000 0.0000
17:11 31.1 1.4 15 16 0.6 1.4 1010.1 0.0000 0.0000
17:21 30.8 1.2 15 13 0.8 1.7 1009.8 0.0000 0.0000
17:31 30.6 3.6 18 0 0.3 0.8 1009.7 0.0000 0.0000
17:41 30.4 1.8 16 4 0.3 1.1 1009.7 0.0000 0.0000
17:51 29.9 2.2 17 90 0.3 0.8 1009.8 0.0000 0.0000
18:11 29 3.8 20 124 0.3 0.6 1009.8 0.0000 0.0000
18:22 28.4 2.6 19 135 0.3 0.8 1009.7 0.0000 0.0000
18:31 27.9 2.2 19 135 0.3 0.6 1009.8 0.0000 0.0000
18:41 27.4 1.8 19 90 0.3 0.6 1009.8 0.0000 0.0000
18:51 27.1 2.2 20 35 0.3 0.8 1009.7 0.0000 0.0000
19:01 26.9 2.8 21 141 0.3 0.6 1010 0.0000 0.0000
19:11 26.6 2.5 21 139 0.3 0.6 1009.8 0.0000 0.0000
19:21 26.4 3 22 135 0.3 0.6 1010 0.0000 0.0000

DAY STATISTIC

2018-09-23
TEMPERATURE
AVERAGE
25.8
HIGH
33.7
14:40
LOW
19.0
05:38
PRESSURE
AVERAGE
1012.7
HIGH
1014.7
10:10
LOW
1009.7
17:31
DEWPOINT
AVERAGE
5.6
HIGH
9.7
10:20
LOW
0.2
16:11
HUMIDITY
AVERAGE
29
HIGH
42
01:27
LOW
13
16:11
WIND SPEED
AVERAGE
0.7
HIGH
1.4
09:20
WIND GUST
AVERAGE
2.1
HIGH
6.1
09:20
WIND DIRECTION
PREVAILING
E
25.2%
N
20.9
NE
18.3
E
25.2
SE
20.9
S
7.0
SW
2.6
W
1.7
NW
2.6
PRECIPITATION
RAIN HOUR
0.0
RAIN DAY
0.0
TEMPERATURE (°C)
LOW
19.0
HIGH
33.7
AVERAGE
25.8
PRESSURE (hpa)
LOW
1009.7
HIGH
1014.7
AVERAGE
1012.7
DEVICE